createdAt,value
2023-02-08T00:00:09.955Z,96.03
2023-02-08T00:01:14.966Z,98.60
2023-02-08T00:02:18.371Z,100.10
2023-02-08T00:03:22.156Z,92.28
2023-02-08T00:04:26.274Z,98.88
2023-02-08T00:05:28.940Z,99.55
2023-02-08T00:06:31.004Z,104.50
2023-02-08T00:07:33.758Z,99.18
2023-02-08T00:08:36.222Z,96.85
2023-02-08T00:09:38.922Z,105.18
2023-02-08T00:10:40.927Z,98.47
2023-02-08T00:11:43.736Z,103.35
2023-02-08T00:12:45.439Z,97.22
2023-02-08T00:13:48.073Z,95.30
2023-02-08T00:14:49.828Z,99.18
2023-02-08T00:15:54.614Z,94.10
2023-02-08T00:16:56.330Z,100.65
2023-02-08T00:18:00.497Z,93.65
2023-02-08T00:19:02.137Z,92.63
2023-02-08T00:20:05.346Z,96.60
2023-02-08T00:21:09.075Z,96.10
2023-02-08T00:22:11.877Z,92.22
2023-02-08T00:23:14.595Z,89.97
2023-02-08T00:24:17.566Z,90.30
2023-02-08T00:25:19.299Z,88.50
2023-02-08T00:26:21.967Z,95.82
2023-02-08T00:27:23.736Z,96.20
2023-02-08T00:28:26.575Z,94.30
2023-02-08T00:29:28.287Z,89.57
2023-02-08T00:30:30.967Z,89.07
2023-02-08T00:31:32.755Z,93.85
2023-02-08T00:32:35.878Z,96.13
2023-02-08T00:33:39.873Z,96.22
2023-02-08T00:34:41.695Z,97.00
2023-02-08T00:35:44.397Z,98.45
2023-02-08T00:36:46.094Z,87.10
2023-02-08T00:37:48.711Z,91.07
2023-02-08T00:38:50.505Z,91.32
2023-02-08T00:39:53.432Z,91.13
2023-02-08T00:40:55.306Z,96.13
2023-02-08T00:41:57.966Z,91.05
2023-02-08T00:42:59.562Z,97.95
2023-02-08T00:44:02.604Z,90.55
2023-02-08T00:45:05.070Z,89.82
2023-02-08T00:46:08.180Z,95.70
2023-02-08T00:47:09.866Z,93.25
2023-02-08T00:48:12.542Z,88.93
2023-02-08T00:49:16.330Z,89.90
2023-02-08T00:50:18.973Z,89.97
2023-02-08T00:51:20.736Z,93.00
2023-02-08T00:52:23.477Z,85.00
2023-02-08T00:53:25.346Z,90.07
2023-02-08T00:54:28.060Z,85.88
2023-02-08T00:55:29.870Z,87.78
2023-02-08T00:56:32.785Z,90.32
2023-02-08T00:57:35.753Z,86.72
2023-02-08T00:58:39.171Z,88.53
2023-02-08T00:59:40.819Z,91.85
2023-02-08T01:00:43.482Z,88.88
2023-02-08T01:01:45.695Z,91.40
2023-02-08T01:02:48.305Z,97.18
2023-02-08T01:03:49.958Z,96.38
2023-02-08T01:04:53.896Z,99.50
2023-02-08T01:06:00.799Z,92.00
2023-02-08T01:07:03.495Z,85.00
2023-02-08T01:08:07.992Z,95.30
2023-02-08T01:09:10.615Z,98.55
2023-02-08T01:10:12.903Z,92.63
2023-02-08T01:11:18.737Z,101.85
2023-02-08T01:12:20.380Z,96.45
2023-02-08T01:13:23.139Z,96.55
2023-02-08T01:14:25.529Z,101.60
2023-02-08T01:15:28.545Z,100.40
2023-02-08T01:16:32.326Z,95.15
2023-02-08T01:17:35.152Z,97.88
2023-02-08T01:18:37.638Z,96.43
2023-02-08T01:19:42.600Z,91.97
2023-02-08T01:20:45.806Z,97.15
2023-02-08T01:21:49.211Z,100.65
2023-02-08T01:22:50.987Z,97.22
2023-02-08T01:23:53.862Z,101.78
2023-02-08T01:24:55.529Z,101.78
2023-02-08T01:25:58.176Z,98.60
2023-02-08T01:27:01.225Z,102.38
2023-02-08T01:28:02.907Z,100.10
2023-02-08T01:29:05.814Z,94.55
2023-02-08T01:30:09.444Z,95.78
2023-02-08T01:31:14.485Z,100.95
2023-02-08T01:32:17.233Z,94.80
2023-02-08T01:33:18.965Z,91.03
2023-02-08T01:34:21.841Z,102.05
2023-02-08T01:35:26.629Z,93.30
2023-02-08T01:36:32.356Z,94.75
2023-02-08T01:37:36.911Z,89.88
2023-02-08T01:38:40.277Z,93.28
2023-02-08T01:39:41.818Z,97.72
2023-02-08T01:40:44.445Z,91.15
2023-02-08T01:41:47.134Z,93.82
2023-02-08T01:42:49.768Z,95.65
2023-02-08T01:44:43.246Z,96.47
2023-02-08T01:45:44.928Z,86.43
2023-02-08T01:46:51.208Z,79.80
2023-02-08T01:47:56.709Z,95.88
2023-02-08T01:49:03.430Z,88.57
2023-02-08T01:50:05.545Z,85.30
2023-02-08T01:51:13.565Z,85.20
2023-02-08T01:52:20.550Z,91.22
2023-02-08T01:53:26.791Z,85.05
2023-02-08T01:54:32.716Z,86.22
2023-02-08T01:55:39.822Z,84.22
2023-02-08T01:56:46.002Z,86.97
2023-02-08T01:57:52.725Z,85.97
2023-02-08T01:59:00.992Z,90.47
2023-02-08T02:00:08.595Z,91.55
2023-02-08T02:01:14.572Z,89.20
2023-02-08T02:02:20.905Z,82.15
2023-02-08T02:03:23.886Z,87.53
2023-02-08T02:04:27.316Z,87.85
2023-02-08T02:05:34.410Z,89.35
2023-02-08T02:06:40.282Z,88.05
2023-02-08T02:07:43.943Z,92.05
2023-02-08T02:08:52.854Z,84.53
2023-02-08T02:10:03.143Z,87.85
2023-02-08T02:11:06.042Z,62.53
2023-02-08T02:12:09.108Z,79.53
2023-02-08T02:13:14.820Z,81.82
2023-02-08T02:14:17.135Z,79.63
2023-02-08T02:15:19.901Z,74.97
2023-02-08T02:16:21.862Z,82.43
2023-02-08T02:17:24.729Z,76.18
2023-02-08T02:18:29.178Z,85.65
2023-02-08T02:19:41.232Z,81.68
2023-02-08T02:21:02.651Z,86.63
2023-02-08T02:22:20.860Z,79.15
2023-02-08T02:24:08.501Z,78.97
2023-02-08T02:25:43.904Z,74.25
2023-02-08T02:27:15.044Z,67.93
2023-02-08T02:28:44.424Z,77.60
2023-02-08T02:30:10.236Z,74.93
2023-02-08T02:31:31.221Z,76.32
2023-02-08T02:32:46.148Z,79.07
2023-02-08T02:33:59.356Z,83.63
2023-02-08T02:35:08.161Z,81.78
2023-02-08T02:36:20.063Z,82.00
2023-02-08T02:37:32.124Z,87.10
2023-02-08T02:38:46.435Z,77.97
2023-02-08T02:39:59.011Z,76.60
2023-02-08T02:41:14.383Z,83.22
2023-02-08T02:42:46.210Z,75.38
2023-02-08T02:43:54.238Z,79.80
2023-02-08T02:45:11.512Z,75.47
2023-02-08T02:46:22.706Z,78.72
2023-02-08T02:47:42.598Z,82.60
2023-02-08T02:48:50.506Z,62.28
2023-02-08T02:49:58.589Z,77.18
2023-02-08T02:51:07.208Z,79.55
2023-02-08T02:52:16.080Z,76.05
2023-02-08T02:53:23.697Z,78.80
2023-02-08T02:54:33.251Z,79.88
2023-02-08T02:55:44.220Z,76.28
2023-02-08T02:56:50.004Z,80.85
2023-02-08T02:57:55.164Z,81.85
2023-02-08T02:59:03.024Z,71.82
2023-02-08T03:00:08.606Z,79.25
2023-02-08T03:01:11.344Z,72.88
2023-02-08T03:02:14.145Z,82.95
2023-02-08T03:03:22.365Z,79.65
2023-02-08T03:04:50.161Z,84.05
2023-02-08T03:05:55.447Z,75.53
2023-02-08T03:07:06.469Z,79.60
2023-02-08T03:08:27.907Z,80.47
2023-02-08T03:09:47.786Z,83.00
2023-02-08T03:11:02.006Z,75.53
2023-02-08T03:12:16.858Z,81.43
2023-02-08T03:13:28.439Z,78.47
2023-02-08T03:14:39.353Z,82.57
2023-02-08T03:15:52.880Z,81.78
2023-02-08T03:17:35.237Z,79.38
2023-02-08T03:18:51.750Z,84.80
2023-02-08T03:20:05.296Z,74.57
2023-02-08T03:21:11.601Z,85.18
2023-02-08T03:22:17.630Z,78.32
2023-02-08T03:23:24.453Z,83.95
2023-02-08T03:24:33.967Z,81.68
2023-02-08T03:25:45.636Z,86.95
2023-02-08T03:26:54.253Z,84.25
2023-02-08T03:28:06.440Z,83.13
2023-02-08T03:29:17.994Z,76.30
2023-02-08T03:30:29.298Z,79.60
2023-02-08T03:31:38.400Z,79.80
2023-02-08T03:32:44.751Z,82.60
2023-02-08T03:33:53.299Z,87.47
2023-02-08T03:35:01.944Z,79.63
2023-02-08T03:36:07.933Z,76.40
2023-02-08T03:37:15.913Z,92.13
2023-02-08T03:38:22.812Z,91.32
2023-02-08T03:39:28.814Z,91.50
2023-02-08T03:40:36.237Z,89.85
2023-02-08T03:41:43.064Z,92.40
2023-02-08T03:42:48.879Z,94.50
2023-02-08T03:43:54.810Z,89.03
2023-02-08T03:45:02.673Z,95.05
2023-02-08T03:46:11.014Z,89.47
2023-02-08T03:47:18.590Z,83.55
2023-02-08T03:48:25.428Z,90.25
2023-02-08T03:49:38.410Z,83.10
2023-02-08T03:50:42.898Z,89.90
2023-02-08T03:51:47.493Z,85.35
2023-02-08T03:52:52.813Z,79.25
2023-02-08T03:53:57.615Z,80.65
2023-02-08T03:55:05.144Z,82.72
2023-02-08T03:56:11.044Z,77.63
2023-02-08T03:57:18.918Z,79.60
2023-02-08T03:58:26.595Z,81.57
2023-02-08T03:59:33.577Z,86.70
2023-02-08T04:00:39.990Z,78.82
2023-02-08T04:01:44.854Z,104.50
2023-02-08T04:02:57.470Z,91.32
2023-02-08T04:04:00.913Z,79.32
2023-02-08T04:05:06.391Z,89.57
2023-02-08T04:06:07.998Z,93.85
2023-02-08T04:07:11.143Z,83.03
2023-02-08T04:08:12.820Z,92.13
2023-02-08T04:09:15.875Z,91.28
2023-02-08T04:10:17.916Z,84.00
2023-02-08T04:11:20.811Z,84.88
2023-02-08T04:12:22.492Z,88.03
2023-02-08T04:13:24.991Z,84.68
2023-02-08T04:14:26.615Z,87.03
2023-02-08T04:15:29.312Z,83.50
2023-02-08T04:16:31.082Z,84.32
2023-02-08T04:17:33.895Z,90.80
2023-02-08T04:18:35.432Z,80.55
2023-02-08T04:19:39.718Z,83.85
2023-02-08T04:20:42.766Z,84.20
2023-02-08T04:21:45.416Z,92.05
2023-02-08T04:22:46.988Z,101.65
2023-02-08T04:23:49.496Z,98.65
2023-02-08T04:24:51.019Z,104.97
2023-02-08T04:25:56.884Z,95.95
2023-02-08T04:26:58.539Z,94.60
2023-02-08T04:28:01.380Z,88.15
2023-02-08T04:29:03.238Z,101.22
2023-02-08T04:30:06.787Z,87.72
2023-02-08T04:31:08.498Z,96.65
2023-02-08T04:32:11.916Z,107.70
2023-02-08T04:33:14.980Z,91.03
2023-02-08T04:34:17.522Z,110.05
2023-02-08T04:35:19.194Z,89.93
2023-02-08T04:36:23.281Z,93.35
2023-02-08T04:37:24.928Z,79.75
2023-02-08T04:38:27.681Z,88.63
2023-02-08T04:39:29.573Z,90.95
2023-02-08T04:40:32.675Z,102.68
2023-02-08T04:41:34.235Z,83.28
2023-02-08T04:42:36.819Z,94.22
2023-02-08T04:43:38.413Z,90.00
2023-02-08T04:44:41.028Z,97.97
2023-02-08T04:45:42.708Z,82.65
2023-02-08T04:46:45.540Z,94.80
2023-02-08T04:47:47.267Z,88.20
2023-02-08T04:48:49.865Z,100.68
2023-02-08T04:49:51.551Z,88.80
2023-02-08T04:50:56.393Z,98.85
2023-02-08T04:51:59.398Z,84.55
2023-02-08T04:53:02.000Z,91.78
2023-02-08T04:54:03.560Z,85.93
2023-02-08T04:55:06.910Z,92.15
2023-02-08T04:56:08.614Z,85.72
2023-02-08T04:57:13.574Z,81.93
2023-02-08T04:58:15.230Z,78.65
2023-02-08T04:59:18.410Z,80.00
2023-02-08T05:00:20.105Z,93.95
2023-02-08T05:01:22.698Z,95.00
2023-02-08T05:02:24.232Z,85.78
2023-02-08T05:03:26.714Z,84.68
2023-02-08T05:04:28.389Z,93.22
2023-02-08T05:05:31.861Z,86.47
2023-02-08T05:06:33.847Z,84.10
2023-02-08T05:07:37.893Z,83.93
2023-02-08T05:08:39.429Z,89.05
2023-02-08T05:09:42.190Z,83.18
2023-02-08T05:10:45.409Z,86.75
2023-02-08T05:11:47.917Z,87.25
2023-02-08T05:12:49.473Z,86.72
2023-02-08T05:13:52.824Z,84.55
2023-02-08T05:14:54.480Z,88.97
2023-02-08T05:15:57.084Z,90.28
2023-02-08T05:16:58.765Z,81.90
2023-02-08T05:18:04.284Z,87.57
2023-02-08T05:19:06.828Z,80.30
2023-02-08T05:20:10.027Z,79.38
2023-02-08T05:21:12.960Z,77.75
2023-02-08T05:22:14.630Z,86.07
2023-02-08T05:23:18.628Z,79.63
2023-02-08T05:24:20.235Z,83.43
2023-02-08T05:25:23.137Z,72.63
2023-02-08T05:26:24.783Z,68.82
2023-02-08T05:27:27.521Z,70.03
2023-02-08T05:28:29.139Z,65.90
2023-02-08T05:29:33.445Z,76.22
2023-02-08T05:30:35.067Z,68.20
2023-02-08T05:31:37.966Z,65.90
2023-02-08T05:32:39.710Z,69.45
2023-02-08T05:33:42.465Z,64.80
2023-02-08T05:34:44.391Z,64.63
2023-02-08T05:35:47.373Z,70.88
2023-02-08T05:36:48.986Z,63.92
2023-02-08T05:37:51.543Z,59.63
2023-02-08T05:38:54.766Z,72.72
2023-02-08T05:39:57.243Z,65.22
2023-02-08T05:41:01.696Z,71.32
2023-02-08T05:42:04.810Z,66.30
2023-02-08T05:43:06.429Z,65.25
2023-02-08T05:44:08.997Z,66.88
2023-02-08T05:45:10.670Z,63.55
2023-02-08T05:46:13.216Z,69.72
2023-02-08T05:47:18.614Z,72.55
2023-02-08T05:48:20.495Z,72.65
2023-02-08T05:49:23.183Z,70.28
2023-02-08T05:50:24.884Z,75.30
2023-02-08T05:51:27.891Z,70.82
2023-02-08T05:52:29.509Z,74.28
2023-02-08T05:53:32.381Z,71.15
2023-02-08T05:54:35.660Z,71.15
2023-02-08T05:55:38.309Z,70.57
2023-02-08T05:56:39.829Z,72.32
2023-02-08T05:57:42.372Z,73.30
2023-02-08T05:58:43.983Z,64.38
2023-02-08T05:59:46.642Z,69.65
2023-02-08T06:00:48.399Z,70.78
2023-02-08T06:01:51.264Z,70.45
2023-02-08T06:02:53.114Z,72.65
2023-02-08T06:03:55.794Z,69.60
2023-02-08T06:04:58.310Z,76.32
2023-02-08T06:06:00.826Z,69.72
2023-02-08T06:07:03.428Z,75.20
2023-02-08T06:08:05.929Z,68.60
2023-02-08T06:09:08.429Z,68.40
2023-02-08T06:10:11.738Z,73.47
2023-02-08T06:11:14.543Z,76.45
2023-02-08T06:12:16.082Z,72.70
2023-02-08T06:13:18.594Z,70.22
2023-02-08T06:14:20.491Z,69.80
2023-02-08T06:15:23.224Z,81.68
2023-02-08T06:16:28.705Z,76.97
2023-02-08T06:17:30.264Z,76.07
2023-02-08T06:18:32.937Z,77.07
2023-02-08T06:19:34.506Z,75.60
2023-02-08T06:20:37.073Z,74.90
2023-02-08T06:21:39.627Z,76.35
2023-02-08T06:22:42.268Z,81.35
2023-02-08T06:23:44.901Z,72.18
2023-02-08T06:24:47.832Z,71.32
2023-02-08T06:25:52.655Z,75.80
2023-02-08T06:26:54.309Z,75.55
2023-02-08T06:27:57.575Z,68.50
2023-02-08T06:28:59.302Z,71.53
2023-02-08T06:30:01.800Z,78.60
2023-02-08T06:31:03.811Z,74.57
2023-02-08T06:32:06.962Z,66.00
2023-02-08T06:33:08.641Z,77.47
2023-02-08T06:34:11.264Z,73.93
2023-02-08T06:35:14.074Z,73.53
2023-02-08T06:36:15.749Z,73.03
2023-02-08T06:37:18.911Z,75.07
2023-02-08T06:38:20.754Z,76.90
2023-02-08T06:39:23.802Z,77.13
2023-02-08T06:40:25.586Z,71.40
2023-02-08T06:41:29.529Z,85.82
2023-02-08T06:42:32.059Z,83.15
2023-02-08T06:43:33.756Z,76.40
2023-02-08T06:44:36.526Z,75.50
2023-02-08T06:45:39.179Z,80.65
2023-02-08T06:46:41.909Z,72.80
2023-02-08T06:47:43.739Z,76.90
2023-02-08T06:48:46.364Z,77.07
2023-02-08T06:49:48.983Z,78.38
2023-02-08T06:50:52.296Z,78.55
2023-02-08T06:51:55.043Z,73.85
2023-02-08T06:52:57.842Z,73.78
2023-02-08T06:53:59.522Z,73.13
2023-02-08T06:55:02.090Z,73.22
2023-02-08T06:56:03.995Z,77.68
2023-02-08T06:57:08.406Z,74.38
2023-02-08T06:58:11.222Z,81.18
2023-02-08T06:59:13.817Z,84.38
2023-02-08T07:00:16.781Z,83.05
2023-02-08T07:01:20.442Z,78.38
2023-02-08T07:02:23.363Z,83.57
2023-02-08T07:03:24.894Z,88.60
2023-02-08T07:04:27.531Z,79.88
2023-02-08T07:05:30.116Z,79.40
2023-02-08T07:06:32.984Z,82.53
2023-02-08T07:07:34.622Z,83.03
2023-02-08T07:08:37.199Z,72.03
2023-02-08T07:09:39.954Z,72.45
2023-02-08T07:10:41.792Z,80.90
2023-02-08T07:11:47.446Z,80.65
2023-02-08T07:12:51.285Z,78.80
2023-02-08T07:13:54.497Z,77.07
2023-02-08T07:14:57.084Z,69.88
2023-02-08T07:15:58.713Z,74.60
2023-02-08T07:17:01.487Z,81.35
2023-02-08T07:18:04.375Z,83.55
2023-02-08T07:19:08.058Z,69.55
2023-02-08T07:20:14.320Z,79.97
2023-02-08T07:21:16.150Z,75.80
2023-02-08T07:22:18.844Z,77.75
2023-02-08T07:23:20.408Z,78.53
2023-02-08T07:24:23.473Z,79.07
2023-02-08T07:25:26.251Z,75.25
2023-02-08T07:26:28.915Z,74.38
2023-02-08T07:27:30.517Z,83.38
2023-02-08T07:28:34.634Z,81.63
2023-02-08T07:29:37.876Z,73.82
2023-02-08T07:30:40.962Z,79.15
2023-02-08T07:31:43.838Z,68.40
2023-02-08T07:32:45.526Z,66.15
2023-02-08T07:33:48.088Z,78.53
2023-02-08T07:34:50.803Z,78.80
2023-02-08T07:35:53.627Z,74.35
2023-02-08T07:36:56.335Z,87.30
2023-02-08T07:38:02.436Z,77.13
2023-02-08T07:39:05.210Z,77.18
2023-02-08T07:40:08.509Z,82.13
2023-02-08T07:41:13.434Z,90.80
2023-02-08T07:42:16.004Z,85.10
2023-02-08T07:43:18.519Z,81.25
2023-02-08T07:44:21.480Z,81.68
2023-02-08T07:45:24.204Z,74.53
2023-02-08T07:46:26.930Z,83.20
2023-02-08T07:47:31.970Z,76.35
2023-02-08T07:48:34.080Z,76.53
2023-02-08T07:49:36.908Z,79.13
2023-02-08T07:50:38.667Z,79.93
2023-02-08T07:51:41.396Z,83.25
2023-02-08T07:52:45.849Z,78.28
2023-02-08T07:53:48.473Z,74.78
2023-02-08T07:54:51.008Z,71.75
2023-02-08T07:55:53.529Z,78.35
2023-02-08T07:56:55.561Z,88.10
2023-02-08T07:57:58.664Z,79.85
2023-02-08T07:59:00.258Z,79.78
2023-02-08T08:00:05.808Z,74.45
2023-02-08T08:01:21.297Z,72.90
2023-02-08T08:02:24.882Z,83.07
2023-02-08T08:03:27.560Z,72.70
2023-02-08T08:04:30.110Z,79.32
2023-02-08T08:05:33.787Z,87.88
2023-02-08T08:06:36.448Z,77.82
2023-02-08T08:07:39.092Z,75.28
2023-02-08T08:08:42.384Z,79.57
2023-02-08T08:09:43.975Z,80.28
2023-02-08T08:10:46.535Z,80.90
2023-02-08T08:11:49.128Z,73.28
2023-02-08T08:12:51.656Z,75.18
2023-02-08T08:13:54.524Z,82.05
2023-02-08T08:14:57.114Z,77.78
2023-02-08T08:16:01.112Z,76.05
2023-02-08T08:17:03.583Z,78.28
2023-02-08T08:18:06.171Z,73.60
2023-02-08T08:19:08.697Z,69.03
2023-02-08T08:20:11.312Z,75.60
2023-02-08T08:21:15.330Z,74.00
2023-02-08T08:22:21.055Z,70.38
2023-02-08T08:23:23.885Z,70.78
2023-02-08T08:24:27.002Z,74.50
2023-02-08T08:25:28.733Z,70.00
2023-02-08T08:26:31.371Z,74.65
2023-02-08T08:27:33.052Z,77.10
2023-02-08T08:28:35.702Z,71.90
2023-02-08T08:29:38.234Z,72.60
2023-02-08T08:30:44.030Z,78.13
2023-02-08T08:31:48.270Z,77.32
2023-02-08T08:32:49.829Z,70.65
2023-02-08T08:33:52.607Z,76.80
2023-02-08T08:34:56.659Z,74.18
2023-02-08T08:35:59.219Z,65.97
2023-02-08T08:37:03.032Z,72.60
2023-02-08T08:38:05.611Z,76.80
2023-02-08T08:39:08.169Z,66.45
2023-02-08T08:40:11.613Z,71.22
2023-02-08T08:41:17.080Z,77.53
2023-02-08T08:42:21.032Z,75.40
2023-02-08T08:43:23.765Z,75.28
2023-02-08T08:44:28.320Z,72.28
2023-02-08T08:45:30.107Z,72.50
2023-02-08T08:46:32.729Z,71.68
2023-02-08T08:47:36.696Z,72.60
2023-02-08T08:48:39.700Z,68.38
2023-02-08T08:49:42.849Z,76.30
2023-02-08T08:50:44.528Z,67.45
2023-02-08T08:51:47.461Z,71.82
2023-02-08T08:52:50.174Z,72.85
2023-02-08T08:53:52.965Z,66.82
2023-02-08T08:54:54.572Z,65.20
2023-02-08T08:55:57.200Z,67.15
2023-02-08T08:57:04.226Z,71.93
2023-02-08T08:58:06.853Z,70.97
2023-02-08T08:59:11.753Z,69.35
2023-02-08T09:00:15.579Z,73.00
2023-02-08T09:01:18.415Z,72.75
2023-02-08T09:02:21.034Z,67.57
2023-02-08T09:03:25.010Z,70.90
2023-02-08T09:04:28.110Z,65.63
2023-02-08T09:05:30.962Z,69.88
2023-02-08T09:06:33.729Z,75.72
2023-02-08T09:07:35.603Z,70.78
2023-02-08T09:08:38.330Z,65.70
2023-02-08T09:09:41.825Z,73.88
2023-02-08T09:10:46.941Z,72.30
2023-02-08T09:11:50.784Z,68.25
2023-02-08T09:12:54.013Z,68.63
2023-02-08T09:13:56.367Z,67.03
2023-02-08T09:14:59.139Z,73.60
2023-02-08T09:16:06.156Z,76.97
2023-02-08T09:17:09.110Z,69.32
2023-02-08T09:18:11.710Z,69.03
2023-02-08T09:19:16.595Z,73.22
2023-02-08T09:20:19.524Z,70.68
2023-02-08T09:21:25.348Z,74.45
2023-02-08T09:22:29.242Z,72.03
2023-02-08T09:23:33.628Z,75.75
2023-02-08T09:24:36.777Z,76.63
2023-02-08T09:25:41.472Z,76.40
2023-02-08T09:26:46.900Z,72.43
2023-02-08T09:27:49.826Z,71.22
2023-02-08T09:28:52.509Z,74.05
2023-02-08T09:29:56.717Z,73.53
2023-02-08T09:31:11.912Z,72.85
2023-02-08T09:32:24.623Z,78.43
2023-02-08T09:33:27.579Z,81.10
2023-02-08T09:34:33.835Z,69.05
2023-02-08T09:35:35.702Z,73.90
2023-02-08T09:36:43.509Z,71.32
2023-02-08T09:37:46.272Z,75.22
2023-02-08T09:38:51.702Z,67.07
2023-02-08T09:39:54.446Z,78.13
2023-02-08T09:41:10.980Z,75.40
2023-02-08T09:42:23.815Z,76.93
2023-02-08T09:43:35.583Z,72.55
2023-02-08T09:44:48.346Z,73.88
2023-02-08T09:46:00.175Z,74.78
2023-02-08T09:47:11.158Z,74.25
2023-02-08T09:48:22.808Z,59.50
2023-02-08T09:49:29.681Z,76.50
2023-02-08T09:50:41.161Z,73.22
2023-02-08T09:51:48.655Z,76.05
2023-02-08T09:52:59.232Z,73.53
2023-02-08T09:54:07.212Z,56.90
2023-02-08T09:55:31.092Z,76.30
2023-02-08T09:56:40.439Z,72.78
2023-02-08T09:57:46.814Z,76.57
2023-02-08T09:58:52.853Z,74.72
2023-02-08T09:59:59.265Z,77.15
2023-02-08T10:01:05.933Z,74.10
2023-02-08T10:02:19.502Z,76.75
2023-02-08T10:03:34.834Z,73.75
2023-02-08T10:04:45.798Z,77.28
2023-02-08T10:05:51.129Z,74.45
2023-02-08T10:06:53.885Z,75.00
2023-02-08T10:07:56.582Z,77.88
2023-02-08T10:09:03.162Z,76.30
2023-02-08T10:10:08.142Z,75.30
2023-02-08T10:11:28.351Z,75.70
2023-02-08T10:12:44.107Z,67.78
2023-02-08T10:14:05.386Z,77.47
2023-02-08T10:15:23.102Z,74.80
2023-02-08T10:16:43.828Z,73.10
2023-02-08T10:18:02.466Z,55.45
2023-02-08T10:19:15.794Z,84.70
2023-02-08T10:20:34.443Z,76.15
2023-02-08T10:21:53.539Z,74.97
2023-02-08T10:23:05.142Z,74.22
2023-02-08T10:24:35.280Z,79.97
2023-02-08T10:26:07.895Z,55.27
2023-02-08T10:27:17.300Z,73.78
2023-02-08T10:28:50.856Z,73.03
2023-02-08T10:30:07.267Z,69.53
2023-02-08T10:31:21.159Z,77.30
2023-02-08T10:32:40.995Z,71.20
2023-02-08T10:33:51.548Z,75.35
2023-02-08T10:34:59.109Z,54.88
2023-02-08T10:36:01.939Z,69.90
2023-02-08T10:37:15.499Z,76.35
2023-02-08T10:38:25.404Z,70.90
2023-02-08T10:39:31.903Z,51.22
2023-02-08T10:40:39.489Z,67.70
2023-02-08T10:41:42.715Z,65.85
2023-02-08T10:42:53.113Z,66.25
2023-02-08T10:44:04.014Z,65.97
2023-02-08T10:46:36.791Z,48.33
2023-02-08T10:47:45.875Z,61.72
2023-02-08T10:49:01.668Z,63.97
2023-02-08T10:50:07.700Z,57.90
2023-02-08T10:51:13.719Z,64.50
2023-02-08T10:52:18.332Z,62.10
2023-02-08T10:53:21.880Z,61.08
2023-02-08T10:54:24.712Z,62.22
2023-02-08T10:55:28.056Z,60.88
2023-02-08T10:56:41.022Z,69.90
2023-02-08T10:57:48.407Z,63.15
2023-02-08T10:58:51.284Z,62.63
2023-02-08T10:59:58.858Z,68.13
2023-02-08T11:01:01.597Z,58.80
2023-02-08T11:02:18.935Z,56.33
2023-02-08T11:03:24.349Z,59.35
2023-02-08T11:04:27.318Z,55.70
2023-02-08T11:05:35.389Z,62.83
2023-02-08T11:06:41.340Z,60.00
2023-02-08T11:07:46.307Z,58.08
2023-02-08T11:08:56.284Z,58.33
2023-02-08T11:10:22.480Z,59.25
2023-02-08T11:11:27.019Z,52.83
2023-02-08T11:12:32.031Z,50.42
2023-02-08T11:13:43.526Z,60.92
2023-02-08T11:14:54.074Z,58.20
2023-02-08T11:15:59.193Z,54.30
2023-02-08T11:17:05.375Z,53.75
2023-02-08T11:18:18.555Z,50.70
2023-02-08T11:19:30.513Z,54.05
2023-02-08T11:20:36.847Z,54.00
2023-02-08T11:21:42.442Z,56.88
2023-02-08T11:22:47.823Z,55.65
2023-02-08T11:23:53.705Z,56.08
2023-02-08T11:24:59.183Z,57.47
2023-02-08T11:26:18.899Z,56.65
2023-02-08T11:27:33.477Z,62.25
2023-02-08T11:28:36.478Z,58.00
2023-02-08T11:29:39.228Z,51.92
2023-02-08T11:30:43.337Z,51.13
2023-02-08T11:32:03.516Z,55.42
2023-02-08T11:33:24.247Z,50.80
2023-02-08T11:34:28.891Z,49.03
2023-02-08T11:35:33.885Z,46.97
2023-02-08T11:36:38.541Z,43.67
2023-02-08T11:37:49.452Z,42.88
2023-02-08T11:38:54.561Z,42.80
2023-02-08T11:39:59.064Z,42.28
2023-02-08T11:41:15.835Z,43.10
2023-02-08T11:42:22.214Z,42.42
2023-02-08T11:43:27.331Z,41.97
2023-02-08T11:44:33.015Z,43.40
2023-02-08T11:45:41.414Z,42.03
2023-02-08T11:46:49.261Z,38.85
2023-02-08T11:47:53.200Z,37.72
2023-02-08T11:48:57.352Z,40.35
2023-02-08T11:50:04.843Z,39.35
2023-02-08T11:51:08.510Z,43.90
2023-02-08T11:52:26.780Z,42.13
2023-02-08T11:53:37.923Z,40.60
2023-02-08T11:54:43.183Z,44.45
2023-02-08T11:55:46.305Z,41.50
2023-02-08T11:57:02.939Z,38.13
2023-02-08T11:58:18.945Z,41.80
2023-02-08T11:59:27.922Z,44.08
2023-02-08T12:00:39.314Z,42.95
2023-02-08T12:01:43.629Z,47.13
2023-02-08T12:02:46.992Z,39.33
2023-02-08T12:03:51.542Z,39.92
2023-02-08T12:04:54.282Z,43.72
2023-02-08T12:06:10.681Z,41.92
2023-02-08T12:07:25.710Z,41.45
2023-02-08T12:08:40.528Z,40.10
2023-02-08T12:10:10.097Z,42.03
2023-02-08T12:11:23.816Z,43.55
2023-02-08T12:12:37.192Z,40.85
2023-02-08T12:14:09.607Z,38.88
2023-02-08T12:15:24.008Z,40.03
2023-02-08T12:16:44.432Z,49.70
2023-02-08T12:18:06.094Z,50.03
2023-02-08T12:19:41.188Z,51.42
2023-02-08T12:20:47.141Z,48.30
2023-02-08T12:21:56.767Z,49.20
2023-02-08T12:23:15.357Z,50.65
2023-02-08T12:24:28.209Z,48.90
2023-02-08T12:25:43.727Z,51.65
2023-02-08T12:27:06.912Z,49.05
2023-02-08T12:28:21.564Z,49.75
2023-02-08T12:29:48.524Z,46.72
2023-02-08T12:31:00.694Z,47.50
2023-02-08T12:32:21.299Z,50.50
2023-02-08T12:33:36.909Z,46.58
2023-02-08T12:35:01.310Z,50.10
2023-02-08T12:36:13.276Z,39.33
2023-02-08T12:37:48.146Z,45.05
2023-02-08T12:39:35.890Z,34.47
2023-02-08T12:40:52.766Z,48.40
2023-02-08T12:42:09.827Z,36.05
2023-02-08T12:43:25.221Z,39.92
2023-02-08T12:44:34.642Z,39.63
2023-02-08T12:46:04.829Z,41.90
2023-02-08T12:47:24.328Z,39.30
2023-02-08T12:48:46.362Z,48.22
2023-02-08T12:50:02.017Z,40.35
2023-02-08T12:51:13.930Z,35.25
2023-02-08T12:52:28.326Z,40.97
2023-02-08T12:53:34.986Z,32.22
2023-02-08T12:54:42.573Z,33.03
2023-02-08T12:55:51.360Z,33.58
2023-02-08T12:57:01.993Z,35.00
2023-02-08T12:58:23.290Z,32.10
2023-02-08T12:59:29.782Z,33.10
2023-02-08T13:00:38.783Z,32.92
2023-02-08T13:01:45.714Z,34.28
2023-02-08T13:02:57.769Z,30.95
2023-02-08T13:04:07.431Z,34.67
2023-02-08T13:05:17.347Z,31.30
2023-02-08T13:06:25.798Z,30.70
2023-02-08T13:07:33.599Z,33.10
2023-02-08T13:08:44.391Z,34.55
2023-02-08T13:11:10.729Z,35.58
2023-02-08T13:12:27.170Z,29.73
2023-02-08T13:13:34.013Z,28.25
2023-02-08T13:14:44.765Z,28.45
2023-02-08T13:16:59.741Z,32.67
2023-02-08T13:18:12.320Z,31.15
2023-02-08T13:19:30.033Z,29.67
2023-02-08T13:20:42.451Z,32.75
2023-02-08T13:21:45.920Z,31.90
2023-02-08T13:22:50.090Z,31.35
2023-02-08T13:23:53.752Z,31.17
2023-02-08T13:25:07.121Z,33.17
2023-02-08T13:26:16.707Z,37.67
2023-02-08T13:27:22.219Z,31.13
2023-02-08T13:28:30.327Z,32.03
2023-02-08T13:29:33.852Z,28.95
2023-02-08T13:30:40.267Z,33.92
2023-02-08T13:31:46.379Z,33.53
2023-02-08T13:32:52.492Z,29.23
2023-02-08T13:34:02.150Z,27.70
2023-02-08T13:35:09.190Z,28.53
2023-02-08T13:36:22.524Z,30.42
2023-02-08T13:37:31.448Z,31.10
2023-02-08T13:38:36.524Z,28.63
2023-02-08T13:39:42.380Z,28.83
2023-02-08T13:40:46.463Z,26.50
2023-02-08T13:41:55.183Z,31.52
2023-02-08T13:43:02.462Z,25.38
2023-02-08T13:44:07.090Z,24.98
2023-02-08T13:45:11.013Z,25.15
2023-02-08T13:46:14.453Z,22.55
2023-02-08T13:47:28.732Z,21.92
2023-02-08T13:48:44.370Z,19.15
2023-02-08T13:49:59.942Z,20.00
2023-02-08T13:51:03.329Z,19.40
2023-02-08T13:52:06.252Z,23.27
2023-02-08T13:53:08.995Z,20.05
2023-02-08T13:54:14.429Z,22.30
2023-02-08T13:55:44.241Z,21.33
2023-02-08T13:56:49.478Z,19.98
2023-02-08T13:57:55.908Z,22.27
2023-02-08T13:59:01.521Z,24.38
2023-02-08T14:00:25.493Z,25.35
2023-02-08T14:01:30.470Z,24.25
2023-02-08T14:02:33.240Z,27.00
2023-02-08T14:03:35.491Z,31.08
2023-02-08T14:04:39.598Z,25.58
2023-02-08T14:05:49.096Z,28.60
2023-02-08T14:06:56.333Z,24.88
2023-02-08T14:08:00.631Z,24.77
2023-02-08T14:09:11.971Z,25.48
2023-02-08T14:10:37.462Z,25.77
2023-02-08T14:11:46.365Z,27.70
2023-02-08T14:12:59.483Z,23.75
2023-02-08T14:14:05.104Z,25.27
2023-02-08T14:15:36.733Z,23.70
2023-02-08T14:16:40.824Z,23.48
2023-02-08T14:17:43.566Z,23.58
2023-02-08T14:18:53.197Z,25.65
2023-02-08T14:20:00.527Z,25.10